sensor_id;sensor_type;location;lat;lon;timestamp;pressure;altitude;pressure_sealevel;temperature;humidity
75447;BME280;64024;55.820;37.574;2023-04-06T00:01:42;99534.03;;;19.92;40.24
75447;BME280;64024;55.820;37.574;2023-04-06T00:04:08;99530.78;;;19.90;40.26
75447;BME280;64024;55.820;37.574;2023-04-06T00:06:34;99529.16;;;19.89;40.24
75447;BME280;64024;55.820;37.574;2023-04-06T00:09:01;99530.22;;;19.88;40.37
75447;BME280;64024;55.820;37.574;2023-04-06T00:11:27;99540.22;;;19.87;40.62
75447;BME280;64024;55.820;37.574;2023-04-06T00:13:54;99532.38;;;19.85;40.54
75447;BME280;64024;55.820;37.574;2023-04-06T00:16:20;99535.88;;;19.86;40.65
75447;BME280;64024;55.820;37.574;2023-04-06T00:18:46;99532.63;;;19.84;40.77
75447;BME280;64024;55.820;37.574;2023-04-06T00:21:13;99531.25;;;19.81;40.51
75447;BME280;64024;55.820;37.574;2023-04-06T00:23:40;99526.94;;;19.80;40.67
75447;BME280;64024;55.820;37.574;2023-04-06T00:26:08;99533.44;;;19.79;40.85
75447;BME280;64024;55.820;37.574;2023-04-06T00:28:34;99523.72;;;19.78;40.70
75447;BME280;64024;55.820;37.574;2023-04-06T00:31:00;99533.66;;;19.78;40.75
75447;BME280;64024;55.820;37.574;2023-04-06T00:33:26;99536.63;;;19.76;40.79
75447;BME280;64024;55.820;37.574;2023-04-06T00:35:52;99530.44;;;19.76;40.82
75447;BME280;64024;55.820;37.574;2023-04-06T00:38:19;99535.03;;;19.75;40.92
75447;BME280;64024;55.820;37.574;2023-04-06T00:40:45;99525.56;;;19.78;40.93
75447;BME280;64024;55.820;37.574;2023-04-06T00:43:12;99534.50;;;19.78;40.86
75447;BME280;64024;55.820;37.574;2023-04-06T00:45:39;99518.84;;;19.80;40.97
75447;BME280;64024;55.820;37.574;2023-04-06T00:48:07;99513.75;;;19.84;40.69
75447;BME280;64024;55.820;37.574;2023-04-06T00:50:33;99529.75;;;19.96;40.02
75447;BME280;64024;55.820;37.574;2023-04-06T00:53:00;99530.53;;;19.91;39.87
75447;BME280;64024;55.820;37.574;2023-04-06T00:55:27;99538.06;;;19.89;39.82
75447;BME280;64024;55.820;37.574;2023-04-06T00:57:54;99524.28;;;19.85;39.66
75447;BME280;64024;55.820;37.574;2023-04-06T01:00:21;99525.63;;;19.83;39.56
75447;BME280;64024;55.820;37.574;2023-04-06T01:02:47;99523.19;;;19.81;39.72
75447;BME280;64024;55.820;37.574;2023-04-06T01:05:13;99522.88;;;19.78;39.64
75447;BME280;64024;55.820;37.574;2023-04-06T01:07:40;99522.34;;;19.76;39.60
75447;BME280;64024;55.820;37.574;2023-04-06T01:10:06;99526.13;;;19.75;39.51
75447;BME280;64024;55.820;37.574;2023-04-06T01:12:32;99521.78;;;19.74;39.72
75447;BME280;64024;55.820;37.574;2023-04-06T01:14:58;99525.56;;;19.73;40.06
75447;BME280;64024;55.820;37.574;2023-04-06T01:17:25;99522.31;;;19.71;39.66
75447;BME280;64024;55.820;37.574;2023-04-06T01:19:51;99520.69;;;19.70;39.87
75447;BME280;64024;55.820;37.574;2023-04-06T01:22:21;99512.59;;;19.70;39.79
75447;BME280;64024;55.820;37.574;2023-04-06T01:24:47;99524.72;;;19.67;39.95
75447;BME280;64024;55.820;37.574;2023-04-06T01:27:13;99516.06;;;19.65;40.11
75447;BME280;64024;55.820;37.574;2023-04-06T01:29:39;99517.16;;;19.64;40.07
75447;BME280;64024;55.820;37.574;2023-04-06T01:32:07;99523.84;;;19.61;39.96
75447;BME280;64024;55.820;37.574;2023-04-06T01:34:34;99512.28;;;19.61;40.12
75447;BME280;64024;55.820;37.574;2023-04-06T01:37:00;99515.19;;;19.59;40.06
75447;BME280;64024;55.820;37.574;2023-04-06T01:39:26;99524.38;;;19.58;40.07
75447;BME280;64024;55.820;37.574;2023-04-06T01:41:52;99526.50;;;19.56;40.20
75447;BME280;64024;55.820;37.574;2023-04-06T01:44:18;99514.09;;;19.55;40.32
75447;BME280;64024;55.820;37.574;2023-04-06T01:46:44;99521.66;;;19.53;40.25
75447;BME280;64024;55.820;37.574;2023-04-06T01:49:12;99513.81;;;19.52;40.25
75447;BME280;64024;55.820;37.574;2023-04-06T01:51:38;99516.50;;;19.52;40.27
75447;BME280;64024;55.820;37.574;2023-04-06T01:54:04;99519.47;;;19.50;40.28
75447;BME280;64024;55.820;37.574;2023-04-06T01:56:30;99515.16;;;19.49;40.45
75447;BME280;64024;55.820;37.574;2023-04-06T01:58:57;99519.16;;;19.47;40.40
75447;BME280;64024;55.820;37.574;2023-04-06T02:01:23;99522.13;;;19.45;40.46
75447;BME280;64024;55.820;37.574;2023-04-06T02:03:49;99521.28;;;19.45;40.46
75447;BME280;64024;55.820;37.574;2023-04-06T02:06:15;99514.56;;;19.42;40.60
75447;BME280;64024;55.820;37.574;2023-04-06T02:08:41;99517.25;;;19.42;40.59
75447;BME280;64024;55.820;37.574;2023-04-06T02:11:07;99511.28;;;19.40;40.76
75447;BME280;64024;55.820;37.574;2023-04-06T02:13:33;99514.25;;;19.38;40.52
75447;BME280;64024;55.820;37.574;2023-04-06T02:16:00;99519.09;;;19.36;40.79
75447;BME280;64024;55.820;37.574;2023-04-06T02:18:30;99514.78;;;19.35;40.55
75447;BME280;64024;55.820;37.574;2023-04-06T02:20:56;99513.16;;;19.34;40.71
75447;BME280;64024;55.820;37.574;2023-04-06T02:23:22;99535.78;;;19.33;40.67
75447;BME280;64024;55.820;37.574;2023-04-06T02:25:47;99536.03;;;19.32;40.67
75447;BME280;64024;55.820;37.574;2023-04-06T02:28:14;99526.31;;;19.31;40.68
75447;BME280;64024;55.820;37.574;2023-04-06T02:30:40;99540.88;;;19.30;40.97
75447;BME280;64024;55.820;37.574;2023-04-06T02:33:05;99545.69;;;19.28;40.94
75447;BME280;64024;55.820;37.574;2023-04-06T02:35:31;99536.00;;;19.27;40.66
75447;BME280;64024;55.820;37.574;2023-04-06T02:37:57;99547.03;;;19.25;40.80
75447;BME280;64024;55.820;37.574;2023-04-06T02:40:23;99542.72;;;19.24;40.71
75447;BME280;64024;55.820;37.574;2023-04-06T02:42:49;99543.78;;;19.23;40.88
75447;BME280;64024;55.820;37.574;2023-04-06T02:45:16;99547.56;;;19.22;40.88
75447;BME280;64024;55.820;37.574;2023-04-06T02:47:42;99550.50;;;19.21;40.81
75447;BME280;64024;55.820;37.574;2023-04-06T02:50:09;99556.13;;;19.19;40.82
75447;BME280;64024;55.820;37.574;2023-04-06T02:52:35;99557.28;;;19.28;40.86
75447;BME280;64024;55.820;37.574;2023-04-06T02:55:01;99546.75;;;19.22;40.71
75447;BME280;64024;55.820;37.574;2023-04-06T02:57:27;99563.41;;;19.19;40.83
75447;BME280;64024;55.820;37.574;2023-04-06T02:59:53;99557.47;;;19.17;40.69
75447;BME280;64024;55.820;37.574;2023-04-06T03:02:19;99558.00;;;19.13;40.86
75447;BME280;64024;55.820;37.574;2023-04-06T03:04:45;99561.75;;;19.12;40.93
75447;BME280;64024;55.820;37.574;2023-04-06T03:07:12;99560.94;;;19.12;40.92
75447;BME280;64024;55.820;37.574;2023-04-06T03:09:38;99566.06;;;19.13;41.08
75447;BME280;64024;55.820;37.574;2023-04-06T03:12:04;99572.53;;;19.12;40.92
75447;BME280;64024;55.820;37.574;2023-04-06T03:14:31;99571.47;;;19.13;41.00
75447;BME280;64024;55.820;37.574;2023-04-06T03:16:57;99570.38;;;19.15;41.09
75447;BME280;64024;55.820;37.574;2023-04-06T03:19:23;99578.22;;;19.16;41.24
75447;BME280;64024;55.820;37.574;2023-04-06T03:21:50;99569.06;;;19.17;41.10
75447;BME280;64024;55.820;37.574;2023-04-06T03:24:15;99564.50;;;19.18;41.20
75447;BME280;64024;55.820;37.574;2023-04-06T03:26:41;99580.16;;;19.21;41.33
75447;BME280;64024;55.820;37.574;2023-04-06T03:29:07;99573.69;;;19.22;41.30
75447;BME280;64024;55.820;37.574;2023-04-06T03:31:33;99576.91;;;19.24;41.24
75447;BME280;64024;55.820;37.574;2023-04-06T03:33:59;99576.41;;;19.27;41.48
75447;BME280;64024;55.820;37.574;2023-04-06T03:36:25;99585.06;;;19.29;41.32
75447;BME280;64024;55.820;37.574;2023-04-06T03:38:52;99579.16;;;19.32;41.39
75447;BME280;64024;55.820;37.574;2023-04-06T03:41:21;99591.03;;;19.36;41.43
75447;BME280;64024;55.820;37.574;2023-04-06T03:43:47;99582.44;;;19.39;41.40
75447;BME280;64024;55.820;37.574;2023-04-06T03:46:13;99588.41;;;19.41;41.48
75447;BME280;64024;55.820;37.574;2023-04-06T03:48:40;99589.53;;;19.45;41.39
75447;BME280;64024;55.820;37.574;2023-04-06T03:51:06;99588.75;;;19.50;41.35
75447;BME280;64024;55.820;37.574;2023-04-06T03:53:32;99594.44;;;19.53;41.22
75447;BME280;64024;55.820;37.574;2023-04-06T03:55:57;99603.63;;;19.57;41.34
75447;BME280;64024;55.820;37.574;2023-04-06T03:58:24;99596.66;;;19.61;41.35
75447;BME280;64024;55.820;37.574;2023-04-06T04:00:50;99596.97;;;19.65;41.51
75447;BME280;64024;55.820;37.574;2023-04-06T04:03:16;99599.97;;;19.69;41.16
75447;BME280;64024;55.820;37.574;2023-04-06T04:05:43;99595.66;;;19.73;41.02
75447;BME280;64024;55.820;37.574;2023-04-06T04:08:09;99600.28;;;19.77;41.24
75447;BME280;64024;55.820;37.574;2023-04-06T04:10:35;99602.19;;;19.82;41.16
75447;BME280;64024;55.820;37.574;2023-04-06T04:13:02;99609.53;;;19.86;41.08
75447;BME280;64024;55.820;37.574;2023-04-06T04:15:28;99609.81;;;19.90;41.05
75447;BME280;64024;55.820;37.574;2023-04-06T04:17:54;99620.66;;;19.95;41.06
75447;BME280;64024;55.820;37.574;2023-04-06T04:20:20;99600.41;;;19.98;41.01
75447;BME280;64024;55.820;37.574;2023-04-06T04:22:47;99608.81;;;20.01;41.06
75447;BME280;64024;55.820;37.574;2023-04-06T04:25:13;99605.59;;;20.04;40.95
75447;BME280;64024;55.820;37.574;2023-04-06T04:27:39;99602.38;;;20.07;40.82
75447;BME280;64024;55.820;37.574;2023-04-06T04:30:06;99603.47;;;20.11;40.87
75447;BME280;64024;55.820;37.574;2023-04-06T04:32:32;99607.81;;;20.18;40.65
75447;BME280;64024;55.820;37.574;2023-04-06T04:34:58;99610.00;;;20.21;40.80
75447;BME280;64024;55.820;37.574;2023-04-06T04:37:24;99606.50;;;20.25;40.86
75447;BME280;64024;55.820;37.574;2023-04-06T04:39:50;99604.63;;;20.31;40.57
75447;BME280;64024;55.820;37.574;2023-04-06T04:42:16;99607.63;;;20.34;40.48
75447;BME280;64024;55.820;37.574;2023-04-06T04:44:42;99606.84;;;20.39;40.62
75447;BME280;64024;55.820;37.574;2023-04-06T04:47:07;99603.34;;;20.44;40.49
75447;BME280;64024;55.820;37.574;2023-04-06T04:49:34;99608.81;;;20.49;40.42
75447;BME280;64024;55.820;37.574;2023-04-06T04:51:59;99608.03;;;20.53;40.47
75447;BME280;64024;55.820;37.574;2023-04-06T04:54:25;99609.94;;;20.58;40.40
75447;BME280;64024;55.820;37.574;2023-04-06T04:56:51;99606.66;;;20.61;40.16
75447;BME280;64024;55.820;37.574;2023-04-06T04:59:17;99618.56;;;20.65;40.44
75447;BME280;64024;55.820;37.574;2023-04-06T05:01:43;99617.25;;;20.68;40.14
75447;BME280;64024;55.820;37.574;2023-04-06T05:04:09;99614.81;;;20.71;40.31
75447;BME280;64024;55.820;37.574;2023-04-06T05:06:35;99611.59;;;20.74;40.15
75447;BME280;64024;55.820;37.574;2023-04-06T05:09:01;99612.94;;;20.77;40.05
75447;BME280;64024;55.820;37.574;2023-04-06T05:11:27;99614.03;;;20.81;40.08
75447;BME280;64024;55.820;37.574;2023-04-06T05:13:54;99622.69;;;20.83;40.21
75447;BME280;64024;55.820;37.574;2023-04-06T05:16:20;99618.38;;;20.87;40.04
75447;BME280;64024;55.820;37.574;2023-04-06T05:18:47;99623.50;;;20.89;39.81
75447;BME280;64024;55.820;37.574;2023-04-06T05:21:13;99614.88;;;20.92;40.07
75447;BME280;64024;55.820;37.574;2023-04-06T05:23:40;99616.22;;;20.94;39.82
75447;BME280;64024;55.820;37.574;2023-04-06T05:26:06;99619.47;;;20.96;39.80
75447;BME280;64024;55.820;37.574;2023-04-06T05:28:32;99626.25;;;20.99;39.90
75447;BME280;64024;55.820;37.574;2023-04-06T05:30:59;99625.97;;;21.00;39.75
75447;BME280;64024;55.820;37.574;2023-04-06T05:33:25;99615.69;;;21.02;39.82
75447;BME280;64024;55.820;37.574;2023-04-06T05:35:52;99621.66;;;21.04;39.75
75447;BME280;64024;55.820;37.574;2023-04-06T05:38:17;99619.50;;;21.06;39.69
75447;BME280;64024;55.820;37.574;2023-04-06T05:40:43;99620.06;;;21.08;39.66
75447;BME280;64024;55.820;37.574;2023-04-06T05:45:36;99628.44;;;21.12;39.68
75447;BME280;64024;55.820;37.574;2023-04-06T05:48:03;99626.25;;;21.14;39.78
75447;BME280;64024;55.820;37.574;2023-04-06T05:50:29;99623.31;;;21.16;39.73
75447;BME280;64024;55.820;37.574;2023-04-06T05:52:55;99622.22;;;21.17;39.77
75447;BME280;64024;55.820;37.574;2023-04-06T05:55:21;99629.00;;;21.19;39.57
75447;BME280;64024;55.820;37.574;2023-04-06T05:57:47;99633.31;;;21.20;39.73
75447;BME280;64024;55.820;37.574;2023-04-06T06:00:14;99628.44;;;21.22;39.57
75447;BME280;64024;55.820;37.574;2023-04-06T06:02:40;99629.25;;;21.23;39.61
75447;BME280;64024;55.820;37.574;2023-04-06T06:05:08;99635.22;;;21.25;39.59
75447;BME280;64024;55.820;37.574;2023-04-06T06:07:36;99623.88;;;21.28;39.66
75447;BME280;64024;55.820;37.574;2023-04-06T06:10:02;99631.41;;;21.31;39.62
75447;BME280;64024;55.820;37.574;2023-04-06T06:12:28;99626.59;;;21.33;39.74
75447;BME280;64024;55.820;37.574;2023-04-06T06:14:55;99629.31;;;21.33;39.66
75447;BME280;64024;55.820;37.574;2023-04-06T06:17:20;99620.09;;;21.34;39.79
75447;BME280;64024;55.820;37.574;2023-04-06T06:19:47;99627.13;;;21.35;39.68
75447;BME280;64024;55.820;37.574;2023-04-06T06:22:13;99621.72;;;21.35;39.79
75447;BME280;64024;55.820;37.574;2023-04-06T06:24:40;99628.50;;;21.38;39.74
75447;BME280;64024;55.820;37.574;2023-04-06T06:27:06;99635.00;;;21.37;39.63
75447;BME280;64024;55.820;37.574;2023-04-06T06:29:34;99627.69;;;21.37;39.62
75447;BME280;64024;55.820;37.574;2023-04-06T06:32:00;99631.19;;;21.38;39.47
75447;BME280;64024;55.820;37.574;2023-04-06T06:34:26;99635.50;;;21.39;39.67
75447;BME280;64024;55.820;37.574;2023-04-06T06:36:52;99628.22;;;21.39;39.41
75447;BME280;64024;55.820;37.574;2023-04-06T06:39:21;99625.50;;;21.39;39.39
75447;BME280;64024;55.820;37.574;2023-04-06T06:41:47;99639.84;;;21.40;39.34
75447;BME280;64024;55.820;37.574;2023-04-06T06:44:13;99647.94;;;21.40;39.38
75447;BME280;64024;55.820;37.574;2023-04-06T06:46:39;99631.72;;;21.40;39.39
75447;BME280;64024;55.820;37.574;2023-04-06T06:49:06;99630.66;;;21.41;39.29
75447;BME280;64024;55.820;37.574;2023-04-06T06:51:32;99629.84;;;21.40;39.55
75447;BME280;64024;55.820;37.574;2023-04-06T06:53:58;99643.38;;;21.40;39.30
75447;BME280;64024;55.820;37.574;2023-04-06T06:56:24;99627.69;;;21.42;39.24
75447;BME280;64024;55.820;37.574;2023-04-06T06:58:52;99630.38;;;21.42;39.20
75447;BME280;64024;55.820;37.574;2023-04-06T07:01:18;99634.19;;;21.41;39.08
75447;BME280;64024;55.820;37.574;2023-04-06T07:03:46;99616.06;;;21.42;38.91
75447;BME280;64024;55.820;37.574;2023-04-06T07:06:13;99623.38;;;21.41;38.80
75447;BME280;64024;55.820;37.574;2023-04-06T07:08:39;99624.16;;;21.42;38.79
75447;BME280;64024;55.820;37.574;2023-04-06T07:11:05;99620.66;;;21.41;38.73
75447;BME280;64024;55.820;37.574;2023-04-06T07:13:31;99616.88;;;21.42;38.92
75447;BME280;64024;55.820;37.574;2023-04-06T07:15:57;99620.38;;;21.43;38.90
75447;BME280;64024;55.820;37.574;2023-04-06T07:18:23;99627.41;;;21.44;39.03
75447;BME280;64024;55.820;37.574;2023-04-06T07:20:50;99617.41;;;21.44;39.03
75447;BME280;64024;55.820;37.574;2023-04-06T07:23:16;99617.94;;;21.46;39.18
75447;BME280;64024;55.820;37.574;2023-04-06T07:25:42;99624.16;;;21.47;39.33
75447;BME280;64024;55.820;37.574;2023-04-06T07:28:09;99618.75;;;21.47;39.33
75447;BME280;64024;55.820;37.574;2023-04-06T07:30:37;99597.94;;;21.47;39.31
75447;BME280;64024;55.820;37.574;2023-04-06T07:33:03;99637.44;;;21.48;39.52
75447;BME280;64024;55.820;37.574;2023-04-06T07:35:31;99620.13;;;21.49;39.37
75447;BME280;64024;55.820;37.574;2023-04-06T07:37:58;99628.22;;;21.49;39.33
75447;BME280;64024;55.820;37.574;2023-04-06T07:40:25;99627.16;;;21.50;39.20
75447;BME280;64024;55.820;37.574;2023-04-06T07:42:52;99627.16;;;21.50;39.51
75447;BME280;64024;55.820;37.574;2023-04-06T07:45:19;99636.06;;;21.51;39.36
75447;BME280;64024;55.820;37.574;2023-04-06T07:47:45;99648.50;;;21.52;39.31
75447;BME280;64024;55.820;37.574;2023-04-06T07:50:12;99621.44;;;21.52;39.23
75447;BME280;64024;55.820;37.574;2023-04-06T07:52:39;99618.75;;;21.52;39.05
75447;BME280;64024;55.820;37.574;2023-04-06T07:55:05;99621.19;;;21.64;39.02
75447;BME280;64024;55.820;37.574;2023-04-06T07:57:32;99612.28;;;21.58;38.86
75447;BME280;64024;55.820;37.574;2023-04-06T07:59:58;99607.13;;;21.56;39.00
75447;BME280;64024;55.820;37.574;2023-04-06T08:02:24;99615.50;;;21.55;38.92
75447;BME280;64024;55.820;37.574;2023-04-06T08:04:50;99615.50;;;21.55;38.88
75447;BME280;64024;55.820;37.574;2023-04-06T08:07:16;99619.31;;;21.54;38.69
75447;BME280;64024;55.820;37.574;2023-04-06T08:09:42;99618.50;;;21.53;38.72
75447;BME280;64024;55.820;37.574;2023-04-06T08:12:08;99613.09;;;21.53;39.02
75447;BME280;64024;55.820;37.574;2023-04-06T08:14:33;99628.22;;;21.54;38.86
75447;BME280;64024;55.820;37.574;2023-04-06T08:17:00;99630.94;;;21.54;38.78
75447;BME280;64024;55.820;37.574;2023-04-06T08:19:26;99612.81;;;21.55;38.79
75447;BME280;64024;55.820;37.574;2023-04-06T08:21:52;99599.84;;;21.57;38.58
75447;BME280;64024;55.820;37.574;2023-04-06T08:24:18;99601.47;;;21.58;38.16
75447;BME280;64024;55.820;37.574;2023-04-06T08:26:44;99597.66;;;21.59;37.47
75447;BME280;64024;55.820;37.574;2023-04-06T08:29:10;99597.38;;;21.60;37.13
75447;BME280;64024;55.820;37.574;2023-04-06T08:31:37;99596.31;;;21.62;36.84
75447;BME280;64024;55.820;37.574;2023-04-06T08:34:04;99589.81;;;21.63;36.50
75447;BME280;64024;55.820;37.574;2023-04-06T08:36:31;99593.03;;;21.65;36.15
75447;BME280;64024;55.820;37.574;2023-04-06T08:38:58;99600.91;;;21.66;35.98
75447;BME280;64024;55.820;37.574;2023-04-06T08:41:25;99599.81;;;21.67;35.79
75447;BME280;64024;55.820;37.574;2023-04-06T08:43:59;99596.81;;;21.69;35.28
75447;BME280;64024;55.820;37.574;2023-04-06T08:46:26;99594.97;;;21.69;35.48
75447;BME280;64024;55.820;37.574;2023-04-06T08:48:58;99599.53;;;21.69;35.21
75447;BME280;64024;55.820;37.574;2023-04-06T08:51:24;99593.31;;;21.68;35.15
75447;BME280;64024;55.820;37.574;2023-04-06T08:53:57;99587.66;;;21.70;35.10
75447;BME280;64024;55.820;37.574;2023-04-06T08:56:25;99583.84;;;21.71;35.03
75447;BME280;64024;55.820;37.574;2023-04-06T08:58:53;99583.56;;;21.72;34.86
75447;BME280;64024;55.820;37.574;2023-04-06T09:01:29;99588.44;;;21.75;34.73
75447;BME280;64024;55.820;37.574;2023-04-06T09:04:00;99581.94;;;21.76;34.74
75447;BME280;64024;55.820;37.574;2023-04-06T09:06:26;99588.72;;;21.79;34.79
75447;BME280;64024;55.820;37.574;2023-04-06T09:08:56;99593.31;;;21.78;34.78
75447;BME280;64024;55.820;37.574;2023-04-06T09:11:24;99592.22;;;21.79;34.71
75447;BME280;64024;55.820;37.574;2023-04-06T09:13:52;99565.97;;;21.80;34.66
75447;BME280;64024;55.820;37.574;2023-04-06T09:16:21;99564.88;;;21.81;34.59
75447;BME280;64024;55.820;37.574;2023-04-06T09:18:48;99578.97;;;21.83;34.68
75447;BME280;64024;55.820;37.574;2023-04-06T09:21:18;99566.81;;;21.86;34.60
75447;BME280;64024;55.820;37.574;2023-04-06T09:23:44;99578.44;;;21.86;34.64
75447;BME280;64024;55.820;37.574;2023-04-06T09:26:13;99585.44;;;21.87;34.48
75447;BME280;64024;55.820;37.574;2023-04-06T09:28:50;99573.25;;;21.90;34.49
75447;BME280;64024;55.820;37.574;2023-04-06T09:31:28;99587.34;;;21.92;34.61
75447;BME280;64024;55.820;37.574;2023-04-06T09:33:56;99579.75;;;21.94;34.55
75447;BME280;64024;55.820;37.574;2023-04-06T09:36:51;99582.44;;;21.99;34.30
75447;BME280;64024;55.820;37.574;2023-04-06T09:39:21;99572.44;;;21.99;34.32
75447;BME280;64024;55.820;37.574;2023-04-06T09:41:50;99577.03;;;21.99;34.33
75447;BME280;64024;55.820;37.574;2023-04-06T09:44:18;99575.41;;;21.98;34.45
75447;BME280;64024;55.820;37.574;2023-04-06T09:46:46;99577.59;;;21.96;34.51
75447;BME280;64024;55.820;37.574;2023-04-06T09:49:13;99566.75;;;21.96;34.38
75447;BME280;64024;55.820;37.574;2023-04-06T09:51:45;99576.78;;;21.95;34.45
75447;BME280;64024;55.820;37.574;2023-04-06T09:54:21;99574.88;;;21.96;34.36
75447;BME280;64024;55.820;37.574;2023-04-06T09:57:04;99572.47;;;21.94;34.44
75447;BME280;64024;55.820;37.574;2023-04-06T10:02:05;99575.72;;;21.91;34.34
75447;BME280;64024;55.820;37.574;2023-04-06T10:05:36;99588.16;;;21.92;33.93
75447;BME280;64024;55.820;37.574;2023-04-06T10:07:41;99579.75;;;21.89;34.20
75447;BME280;64024;55.820;37.574;2023-04-06T10:10:09;99578.44;;;21.86;33.95
75447;BME280;64024;55.820;37.574;2023-04-06T10:12:37;99574.38;;;21.83;34.13
75447;BME280;64024;55.820;37.574;2023-04-06T10:15:05;99564.63;;;21.82;34.12
75447;BME280;64024;55.820;37.574;2023-04-06T10:17:32;99585.47;;;21.82;34.03
75447;BME280;64024;55.820;37.574;2023-04-06T10:20:11;99575.16;;;21.84;33.83
75447;BME280;64024;55.820;37.574;2023-04-06T10:25:34;99568.16;;;21.83;33.89
75447;BME280;64024;55.820;37.574;2023-04-06T10:28:01;99568.44;;;21.81;33.87
75447;BME280;64024;55.820;37.574;2023-04-06T10:30:30;99557.88;;;21.80;33.59
75447;BME280;64024;55.820;37.574;2023-04-06T10:32:57;99571.38;;;21.80;33.56
75447;BME280;64024;55.820;37.574;2023-04-06T10:35:23;99573.28;;;21.79;33.45
75447;BME280;64024;55.820;37.574;2023-04-06T10:37:52;99567.06;;;21.79;33.54
75447;BME280;64024;55.820;37.574;2023-04-06T10:40:23;99555.44;;;21.78;33.56
75447;BME280;64024;55.820;37.574;2023-04-06T10:42:52;99552.44;;;21.80;33.64
75447;BME280;64024;55.820;37.574;2023-04-06T10:45:23;99555.41;;;21.83;34.40
75447;BME280;64024;55.820;37.574;2023-04-06T10:47:52;99552.19;;;21.87;34.62
75447;BME280;64024;55.820;37.574;2023-04-06T10:50:18;99561.63;;;21.94;34.89
75447;BME280;64024;55.820;37.574;2023-04-06T10:53:01;99552.41;;;22.00;35.33
75447;BME280;64024;55.820;37.574;2023-04-06T10:55:29;99557.78;;;22.05;35.50
75447;BME280;64024;55.820;37.574;2023-04-06T10:57:55;99557.78;;;22.11;35.80
75447;BME280;64024;55.820;37.574;2023-04-06T11:00:21;99551.59;;;22.15;36.05
75447;BME280;64024;55.820;37.574;2023-04-06T11:02:47;99557.78;;;22.21;36.17
75447;BME280;64024;55.820;37.574;2023-04-06T11:05:14;99544.22;;;22.26;36.32
75447;BME280;64024;55.820;37.574;2023-04-06T11:07:41;99543.38;;;22.30;36.62
75447;BME280;64024;55.820;37.574;2023-04-06T11:10:08;99552.84;;;22.33;36.73
75447;BME280;64024;55.820;37.574;2023-04-06T11:12:34;99562.59;;;22.34;36.84
75447;BME280;64024;55.820;37.574;2023-04-06T11:15:03;99558.53;;;22.37;37.10
75447;BME280;64024;55.820;37.574;2023-04-06T11:17:34;99553.63;;;22.39;36.93
75447;BME280;64024;55.820;37.574;2023-04-06T11:20:03;99547.16;;;22.40;37.13
75447;BME280;64024;55.820;37.574;2023-04-06T11:22:31;99550.66;;;22.40;36.92
75447;BME280;64024;55.820;37.574;2023-04-06T11:25:08;99554.69;;;22.43;36.92
75447;BME280;64024;55.820;37.574;2023-04-06T11:27:35;99539.25;;;22.43;37.01
75447;BME280;64024;55.820;37.574;2023-04-06T11:30:02;99545.50;;;22.44;36.90
75447;BME280;64024;55.820;37.574;2023-04-06T11:32:38;99548.22;;;22.44;36.92
75447;BME280;64024;55.820;37.574;2023-04-06T11:35:05;99559.56;;;22.46;36.78
75447;BME280;64024;55.820;37.574;2023-04-06T11:37:32;99565.78;;;22.46;36.20
75447;BME280;64024;55.820;37.574;2023-04-06T11:39:59;99557.13;;;22.44;35.88
75447;BME280;64024;55.820;37.574;2023-04-06T11:42:27;99542.25;;;22.42;35.66
75447;BME280;64024;55.820;37.574;2023-04-06T11:44:58;99543.34;;;22.41;35.15
75447;BME280;64024;55.820;37.574;2023-04-06T11:47:41;99550.09;;;22.43;34.75
75447;BME280;64024;55.820;37.574;2023-04-06T11:50:10;99550.66;;;22.40;34.91
75447;BME280;64024;55.820;37.574;2023-04-06T11:52:39;99556.06;;;22.40;34.54
75447;BME280;64024;55.820;37.574;2023-04-06T11:55:16;99544.44;;;22.40;34.53
75447;BME280;64024;55.820;37.574;2023-04-06T11:57:42;99549.31;;;22.38;34.51
75447;BME280;64024;55.820;37.574;2023-04-06T12:00:10;99546.88;;;22.36;34.36
75447;BME280;64024;55.820;37.574;2023-04-06T12:02:37;99541.72;;;22.34;34.38
75447;BME280;64024;55.820;37.574;2023-04-06T12:05:04;99551.50;;;22.36;34.18
75447;BME280;64024;55.820;37.574;2023-04-06T12:07:30;99549.28;;;22.48;34.06
75447;BME280;64024;55.820;37.574;2023-04-06T12:09:57;99532.50;;;22.41;34.23
75447;BME280;64024;55.820;37.574;2023-04-06T12:12:24;99531.16;;;22.38;33.95
75447;BME280;64024;55.820;37.574;2023-04-06T12:14:51;99532.25;;;22.37;34.10
75447;BME280;64024;55.820;37.574;2023-04-06T12:17:18;99536.31;;;22.34;33.87
75447;BME280;64024;55.820;37.574;2023-04-06T12:19:45;99536.31;;;22.34;33.69
75447;BME280;64024;55.820;37.574;2023-04-06T12:22:11;99533.59;;;22.34;33.46
75447;BME280;64024;55.820;37.574;2023-04-06T12:24:37;99538.22;;;22.34;33.35
75447;BME280;64024;55.820;37.574;2023-04-06T12:27:03;99537.41;;;22.33;33.48
75447;BME280;64024;55.820;37.574;2023-04-06T12:29:29;99537.41;;;22.33;33.57
75447;BME280;64024;55.820;37.574;2023-04-06T12:31:56;99526.56;;;22.33;33.51
75447;BME280;64024;55.820;37.574;2023-04-06T12:34:22;99537.13;;;22.35;33.33
75447;BME280;64024;55.820;37.574;2023-04-06T12:36:48;99538.75;;;22.36;33.17
75447;BME280;64024;55.820;37.574;2023-04-06T12:39:14;99539.81;;;22.40;33.23
75447;BME280;64024;55.820;37.574;2023-04-06T12:41:41;99525.16;;;22.46;33.27
75447;BME280;64024;55.820;37.574;2023-04-06T12:44:07;99546.53;;;22.53;33.55
75447;BME280;64024;55.820;37.574;2023-04-06T12:46:33;99538.66;;;22.56;33.41
75447;BME280;64024;55.820;37.574;2023-04-06T12:49:00;99535.59;;;22.68;33.17
75447;BME280;64024;55.820;37.574;2023-04-06T12:51:29;99538.59;;;22.67;33.09
75447;BME280;64024;55.820;37.574;2023-04-06T12:53:56;99534.53;;;22.64;33.11
75447;BME280;64024;55.820;37.574;2023-04-06T12:56:23;99536.72;;;22.62;32.73
75447;BME280;64024;55.820;37.574;2023-04-06T12:58:51;99535.91;;;22.62;32.82